sensor_id;sensor_type;location;lat;lon;timestamp;pressure;altitude;pressure_sealevel;temperature;humidity
62789;BME280;66401;42.016;21.454;2023-02-11T00:03:51;100140.72;;;-1.12;56.70
62789;BME280;66401;42.016;21.454;2023-02-11T00:06:16;100135.81;;;-1.17;56.33
62789;BME280;66401;42.016;21.454;2023-02-11T00:08:42;100140.03;;;-1.16;56.13
62789;BME280;66401;42.016;21.454;2023-02-11T00:11:12;100142.38;;;-1.11;56.26
62789;BME280;66401;42.016;21.454;2023-02-11T00:13:38;100141.81;;;-1.18;56.30
62789;BME280;66401;42.016;21.454;2023-02-11T00:16:08;100142.56;;;-1.33;56.69
62789;BME280;66401;42.016;21.454;2023-02-11T00:18:34;100139.50;;;-1.41;57.18
62789;BME280;66401;42.016;21.454;2023-02-11T00:21:08;100145.13;;;-1.52;57.85
62789;BME280;66401;42.016;21.454;2023-02-11T00:23:34;100149.44;;;-1.35;57.17
62789;BME280;66401;42.016;21.454;2023-02-11T00:26:00;100150.16;;;-1.51;57.79
62789;BME280;66401;42.016;21.454;2023-02-11T00:28:25;100144.78;;;-1.45;57.28
62789;BME280;66401;42.016;21.454;2023-02-11T00:30:56;100122.38;;;-1.58;57.17
62789;BME280;66401;42.016;21.454;2023-02-11T00:33:21;100149.31;;;-1.51;57.30
62789;BME280;66401;42.016;21.454;2023-02-11T00:35:47;100142.63;;;-1.73;57.89
62789;BME280;66401;42.016;21.454;2023-02-11T00:38:12;100151.94;;;-1.71;57.47
62789;BME280;66401;42.016;21.454;2023-02-11T00:40:38;100156.56;;;-1.61;57.77
62789;BME280;66401;42.016;21.454;2023-02-11T00:43:03;100151.22;;;-1.75;57.84
62789;BME280;66401;42.016;21.454;2023-02-11T00:45:29;100153.88;;;-1.77;57.77
62789;BME280;66401;42.016;21.454;2023-02-11T00:47:55;100127.00;;;-1.85;57.84
62789;BME280;66401;42.016;21.454;2023-02-11T00:50:21;100156.22;;;-1.72;57.77
62789;BME280;66401;42.016;21.454;2023-02-11T00:52:46;100156.75;;;-1.65;58.24
62789;BME280;66401;42.016;21.454;2023-02-11T00:55:12;100153.31;;;-1.64;58.16
62789;BME280;66401;42.016;21.454;2023-02-11T00:57:37;100153.25;;;-1.63;58.33
62789;BME280;66401;42.016;21.454;2023-02-11T01:00:04;100155.53;;;-1.57;58.80
62789;BME280;66401;42.016;21.454;2023-02-11T01:02:30;100148.16;;;-1.63;59.30
62789;BME280;66401;42.016;21.454;2023-02-11T01:04:56;100148.16;;;-1.63;59.55
62789;BME280;66401;42.016;21.454;2023-02-11T01:07:24;100142.00;;;-1.59;59.71
62789;BME280;66401;42.016;21.454;2023-02-11T01:09:49;100138.53;;;-1.58;59.13
62789;BME280;66401;42.016;21.454;2023-02-11T01:12:15;100158.31;;;-1.61;59.67
62789;BME280;66401;42.016;21.454;2023-02-11T01:14:40;100151.72;;;-1.67;59.98
62789;BME280;66401;42.016;21.454;2023-02-11T01:17:06;100141.84;;;-1.56;59.37
62789;BME280;66401;42.016;21.454;2023-02-11T01:19:31;100137.56;;;-1.74;58.83
62789;BME280;66401;42.016;21.454;2023-02-11T01:21:57;100144.97;;;-1.68;59.32
62789;BME280;66401;42.016;21.454;2023-02-11T01:24:22;100139.84;;;-1.68;58.39
62789;BME280;66401;42.016;21.454;2023-02-11T01:26:48;100140.75;;;-1.69;59.14
62789;BME280;66401;42.016;21.454;2023-02-11T01:29:13;100137.28;;;-1.87;59.65
62789;BME280;66401;42.016;21.454;2023-02-11T01:31:39;100139.16;;;-1.90;59.56
62789;BME280;66401;42.016;21.454;2023-02-11T01:34:05;100138.25;;;-1.89;59.43
62789;BME280;66401;42.016;21.454;2023-02-11T01:36:31;100134.22;;;-1.95;59.21
62789;BME280;66401;42.016;21.454;2023-02-11T01:38:56;100132.75;;;-1.80;59.09
62789;BME280;66401;42.016;21.454;2023-02-11T01:41:22;100132.88;;;-1.83;58.76
62789;BME280;66401;42.016;21.454;2023-02-11T01:43:48;100134.94;;;-1.91;58.65
62789;BME280;66401;42.016;21.454;2023-02-11T01:48:45;100131.72;;;-2.15;59.20
62789;BME280;66401;42.016;21.454;2023-02-11T01:51:21;100126.06;;;-2.22;59.54
62789;BME280;66401;42.016;21.454;2023-02-11T01:53:49;100116.94;;;-2.27;59.11
62789;BME280;66401;42.016;21.454;2023-02-11T01:56:37;100120.44;;;-2.10;59.57
62789;BME280;66401;42.016;21.454;2023-02-11T02:02:42;100114.34;;;-2.07;57.94
62789;BME280;66401;42.016;21.454;2023-02-11T02:10:22;100132.94;;;-2.24;58.47
62789;BME280;66401;42.016;21.454;2023-02-11T02:12:49;100132.53;;;-2.15;58.43
62789;BME280;66401;42.016;21.454;2023-02-11T02:23:41;100130.00;;;-2.55;59.10
62789;BME280;66401;42.016;21.454;2023-02-11T02:37:23;100126.50;;;-2.53;59.95
62789;BME280;66401;42.016;21.454;2023-02-11T02:39:52;100130.63;;;-2.71;60.95
62789;BME280;66401;42.016;21.454;2023-02-11T02:42:19;100103.47;;;-2.72;59.99
62789;BME280;66401;42.016;21.454;2023-02-11T02:44:51;100134.09;;;-2.51;60.05
62789;BME280;66401;42.016;21.454;2023-02-11T02:47:18;100137.28;;;-2.67;59.84
62789;BME280;66401;42.016;21.454;2023-02-11T02:49:43;100137.88;;;-2.82;60.58
62789;BME280;66401;42.016;21.454;2023-02-11T03:03:28;100139.63;;;-2.82;61.06
62789;BME280;66401;42.016;21.454;2023-02-11T03:09:00;100125.78;;;-2.97;60.96
62789;BME280;66401;42.016;21.454;2023-02-11T03:11:28;100101.16;;;-2.98;61.17
62789;BME280;66401;42.016;21.454;2023-02-11T03:13:54;100116.88;;;-2.87;61.54
62789;BME280;66401;42.016;21.454;2023-02-11T03:16:26;100129.88;;;-2.73;61.71
62789;BME280;66401;42.016;21.454;2023-02-11T03:19:01;100134.28;;;-2.76;60.55
62789;BME280;66401;42.016;21.454;2023-02-11T03:21:29;100126.31;;;-2.69;60.96
62789;BME280;66401;42.016;21.454;2023-02-11T03:24:00;100120.84;;;-2.60;59.86
62789;BME280;66401;42.016;21.454;2023-02-11T03:26:31;100118.84;;;-2.73;59.89
62789;BME280;66401;42.016;21.454;2023-02-11T03:29:12;100121.91;;;-2.65;59.85
62789;BME280;66401;42.016;21.454;2023-02-11T03:37:12;100131.78;;;-2.78;61.09
62789;BME280;66401;42.016;21.454;2023-02-11T03:39:46;100130.59;;;-2.91;61.57
62789;BME280;66401;42.016;21.454;2023-02-11T03:42:13;100134.41;;;-3.01;62.50
62789;BME280;66401;42.016;21.454;2023-02-11T03:44:44;100123.69;;;-2.88;61.92
62789;BME280;66401;42.016;21.454;2023-02-11T03:47:12;100131.81;;;-3.00;62.88
62789;BME280;66401;42.016;21.454;2023-02-11T03:49:42;100124.94;;;-3.20;62.87
62789;BME280;66401;42.016;21.454;2023-02-11T03:52:10;100128.03;;;-3.33;63.57
62789;BME280;66401;42.016;21.454;2023-02-11T03:54:38;100121.72;;;-3.03;61.75
62789;BME280;66401;42.016;21.454;2023-02-11T03:57:06;100127.06;;;-3.09;62.48
62789;BME280;66401;42.016;21.454;2023-02-11T04:02:16;100125.53;;;-3.13;62.02
62789;BME280;66401;42.016;21.454;2023-02-11T04:04:42;100121.03;;;-3.06;62.23
62789;BME280;66401;42.016;21.454;2023-02-11T04:07:10;100128.84;;;-3.11;62.85
62789;BME280;66401;42.016;21.454;2023-02-11T04:09:36;100129.94;;;-3.17;62.22
62789;BME280;66401;42.016;21.454;2023-02-11T04:12:01;100123.38;;;-3.02;62.08
62789;BME280;66401;42.016;21.454;2023-02-11T04:14:27;100126.34;;;-3.12;62.82
62789;BME280;66401;42.016;21.454;2023-02-11T04:16:52;100117.84;;;-3.33;62.98
62789;BME280;66401;42.016;21.454;2023-02-11T04:19:18;100118.19;;;-3.42;63.40
62789;BME280;66401;42.016;21.454;2023-02-11T04:21:43;100116.19;;;-3.34;62.63
62789;BME280;66401;42.016;21.454;2023-02-11T04:24:09;100113.09;;;-3.21;61.90
62789;BME280;66401;42.016;21.454;2023-02-11T04:26:34;100110.00;;;-3.29;62.89
62789;BME280;66401;42.016;21.454;2023-02-11T04:29:00;100111.97;;;-3.13;62.62
62789;BME280;66401;42.016;21.454;2023-02-11T04:31:25;100114.75;;;-3.20;61.75
62789;BME280;66401;42.016;21.454;2023-02-11T04:33:51;100111.44;;;-3.22;62.41
62789;BME280;66401;42.016;21.454;2023-02-11T04:36:16;100115.56;;;-3.41;63.63
62789;BME280;66401;42.016;21.454;2023-02-11T04:38:42;100120.31;;;-3.32;63.49
62789;BME280;66401;42.016;21.454;2023-02-11T04:41:07;100113.69;;;-3.14;62.81
62789;BME280;66401;42.016;21.454;2023-02-11T04:43:33;100104.69;;;-3.23;62.34
62789;BME280;66401;42.016;21.454;2023-02-11T04:45:58;100113.34;;;-3.27;62.22
62789;BME280;66401;42.016;21.454;2023-02-11T04:48:24;100119.97;;;-3.23;62.04
62789;BME280;66401;42.016;21.454;2023-02-11T04:50:50;100114.09;;;-3.25;61.86
62789;BME280;66401;42.016;21.454;2023-02-11T04:53:16;100118.53;;;-3.52;63.20
62789;BME280;66401;42.016;21.454;2023-02-11T04:55:41;100119.50;;;-3.32;63.08
62789;BME280;66401;42.016;21.454;2023-02-11T04:58:07;100126.09;;;-3.27;61.53
62789;BME280;66401;42.016;21.454;2023-02-11T05:00:32;100119.19;;;-3.25;61.85
62789;BME280;66401;42.016;21.454;2023-02-11T05:02:58;100119.97;;;-3.23;61.47
62789;BME280;66401;42.016;21.454;2023-02-11T05:05:23;100118.13;;;-3.41;62.01
62789;BME280;66401;42.016;21.454;2023-02-11T05:07:50;100120.47;;;-3.58;63.83
62789;BME280;66401;42.016;21.454;2023-02-11T05:10:15;100119.13;;;-3.45;62.45
62789;BME280;66401;42.016;21.454;2023-02-11T05:12:41;100122.91;;;-3.55;63.48
62789;BME280;66401;42.016;21.454;2023-02-11T05:15:07;100124.88;;;-3.40;62.62
62789;BME280;66401;42.016;21.454;2023-02-11T05:17:32;100125.94;;;-3.24;61.68
62789;BME280;66401;42.016;21.454;2023-02-11T05:19:58;100124.16;;;-3.22;61.80
62789;BME280;66401;42.016;21.454;2023-02-11T05:22:23;100131.59;;;-3.15;61.51
62789;BME280;66401;42.016;21.454;2023-02-11T05:24:49;100123.06;;;-3.36;62.44
62789;BME280;66401;42.016;21.454;2023-02-11T05:27:14;100126.59;;;-3.40;63.33
62789;BME280;66401;42.016;21.454;2023-02-11T05:29:40;100126.50;;;-3.37;62.17
62789;BME280;66401;42.016;21.454;2023-02-11T05:32:05;100133.72;;;-3.27;62.97
62789;BME280;66401;42.016;21.454;2023-02-11T05:34:33;100134.06;;;-3.14;61.75
62789;BME280;66401;42.016;21.454;2023-02-11T05:36:59;100129.94;;;-3.17;62.07
62789;BME280;66401;42.016;21.454;2023-02-11T05:39:24;100129.81;;;-3.13;62.24
62789;BME280;66401;42.016;21.454;2023-02-11T05:41:50;100119.00;;;-3.20;62.42
62789;BME280;66401;42.016;21.454;2023-02-11T05:44:15;100128.00;;;-3.11;61.76
62789;BME280;66401;42.016;21.454;2023-02-11T05:46:41;100135.66;;;-3.11;61.82
62789;BME280;66401;42.016;21.454;2023-02-11T05:49:06;100135.56;;;-3.08;61.58
62789;BME280;66401;42.016;21.454;2023-02-11T05:51:32;100141.88;;;-3.19;61.48
62789;BME280;66401;42.016;21.454;2023-02-11T05:53:57;100143.91;;;-3.27;62.17
62789;BME280;66401;42.016;21.454;2023-02-11T05:56:23;100148.47;;;-3.35;62.52
62789;BME280;66401;42.016;21.454;2023-02-11T05:58:49;100145.25;;;-3.40;62.35
62789;BME280;66401;42.016;21.454;2023-02-11T06:01:14;100147.72;;;-3.37;62.52
62789;BME280;66401;42.016;21.454;2023-02-11T06:03:40;100122.03;;;-3.54;63.32
62789;BME280;66401;42.016;21.454;2023-02-11T06:06:10;100146.41;;;-3.47;62.96
62789;BME280;66401;42.016;21.454;2023-02-11T06:08:36;100149.22;;;-3.33;62.86
62789;BME280;66401;42.016;21.454;2023-02-11T06:11:01;100147.09;;;-3.22;61.99
62789;BME280;66401;42.016;21.454;2023-02-11T06:13:27;100150.47;;;-3.21;62.36
62789;BME280;66401;42.016;21.454;2023-02-11T06:16:00;100139.41;;;-3.20;62.59
62789;BME280;66401;42.016;21.454;2023-02-11T06:18:26;100139.88;;;-3.10;61.54
62789;BME280;66401;42.016;21.454;2023-02-11T06:20:52;100127.03;;;-3.07;60.96
62789;BME280;66401;42.016;21.454;2023-02-11T06:23:18;100137.50;;;-2.93;60.55
62789;BME280;66401;42.016;21.454;2023-02-11T06:25:44;100148.38;;;-2.68;59.90
62789;BME280;66401;42.016;21.454;2023-02-11T06:28:09;100145.09;;;-2.49;59.34
62789;BME280;66401;42.016;21.454;2023-02-11T06:30:36;100145.59;;;-2.41;59.53
62789;BME280;66401;42.016;21.454;2023-02-11T06:33:02;100133.38;;;-2.35;58.95
62789;BME280;66401;42.016;21.454;2023-02-11T06:35:27;100143.97;;;-2.23;59.22
62789;BME280;66401;42.016;21.454;2023-02-11T06:37:52;100144.16;;;-2.08;58.29
62789;BME280;66401;42.016;21.454;2023-02-11T06:40:19;100141.41;;;-2.03;58.22
62789;BME280;66401;42.016;21.454;2023-02-11T06:42:45;100140.88;;;-1.91;58.09
62789;BME280;66401;42.016;21.454;2023-02-11T06:45:11;100122.13;;;-1.71;57.53
62789;BME280;66401;42.016;21.454;2023-02-11T06:47:38;100138.28;;;-1.52;57.35
62789;BME280;66401;42.016;21.454;2023-02-11T06:50:06;100134.41;;;-1.41;57.00
62789;BME280;66401;42.016;21.454;2023-02-11T06:52:32;100128.88;;;-1.32;56.48
62789;BME280;66401;42.016;21.454;2023-02-11T06:54:58;100129.28;;;-1.41;56.03
62789;BME280;66401;42.016;21.454;2023-02-11T06:57:23;100131.53;;;-1.35;55.68
62789;BME280;66401;42.016;21.454;2023-02-11T06:59:49;100119.34;;;-1.66;56.29
62789;BME280;66401;42.016;21.454;2023-02-11T07:02:15;100130.81;;;-1.56;56.71
62789;BME280;66401;42.016;21.454;2023-02-11T07:04:41;100126.19;;;-1.67;57.25
62789;BME280;66401;42.016;21.454;2023-02-11T07:07:06;100123.84;;;-1.53;56.83
62789;BME280;66401;42.016;21.454;2023-02-11T07:09:32;100119.06;;;-1.41;56.09
62789;BME280;66401;42.016;21.454;2023-02-11T07:11:57;100125.41;;;-1.31;56.04
62789;BME280;66401;42.016;21.454;2023-02-11T07:14:23;100101.91;;;-1.21;55.84
62789;BME280;66401;42.016;21.454;2023-02-11T07:16:49;100117.16;;;-1.19;56.05
62789;BME280;66401;42.016;21.454;2023-02-11T07:19:14;100107.50;;;-0.95;54.83
62789;BME280;66401;42.016;21.454;2023-02-11T07:21:39;100112.63;;;-0.78;54.89
62789;BME280;66401;42.016;21.454;2023-02-11T07:24:06;100105.75;;;-0.77;54.92
62789;BME280;66401;42.016;21.454;2023-02-11T07:26:32;100114.97;;;-0.56;54.56
62789;BME280;66401;42.016;21.454;2023-02-11T07:28:58;100111.78;;;-0.44;53.78
62789;BME280;66401;42.016;21.454;2023-02-11T07:31:25;100114.94;;;-0.39;54.12
62789;BME280;66401;42.016;21.454;2023-02-11T07:33:53;100110.94;;;-0.27;54.16
62789;BME280;66401;42.016;21.454;2023-02-11T07:36:19;100110.31;;;-0.15;53.92
62789;BME280;66401;42.016;21.454;2023-02-11T07:38:45;100100.16;;;0.33;53.34
62789;BME280;66401;42.016;21.454;2023-02-11T07:41:13;100083.09;;;0.63;51.29
62789;BME280;66401;42.016;21.454;2023-02-11T07:43:39;100102.69;;;1.26;50.93
62789;BME280;66401;42.016;21.454;2023-02-11T07:46:07;100101.19;;;2.09;48.90
62789;BME280;66401;42.016;21.454;2023-02-11T07:48:33;100096.03;;;3.31;46.33
62789;BME280;66401;42.016;21.454;2023-02-11T07:51:13;100100.63;;;5.12;41.64
62789;BME280;66401;42.016;21.454;2023-02-11T07:53:40;100091.53;;;4.95;42.27
62789;BME280;66401;42.016;21.454;2023-02-11T07:56:06;100081.66;;;6.70;37.04
62789;BME280;66401;42.016;21.454;2023-02-11T07:58:32;100085.69;;;6.95;36.87
62789;BME280;66401;42.016;21.454;2023-02-11T08:01:06;100079.34;;;8.32;33.97
62789;BME280;66401;42.016;21.454;2023-02-11T08:03:33;100071.22;;;9.14;32.57
62789;BME280;66401;42.016;21.454;2023-02-11T08:06:10;100078.59;;;9.94;30.84
62789;BME280;66401;42.016;21.454;2023-02-11T08:08:36;100083.59;;;10.06;30.53
62789;BME280;66401;42.016;21.454;2023-02-11T08:11:09;100070.97;;;9.07;31.25
62789;BME280;66401;42.016;21.454;2023-02-11T08:13:35;100076.84;;;10.40;29.46
62789;BME280;66401;42.016;21.454;2023-02-11T08:16:02;100083.09;;;11.80;27.70
62789;BME280;66401;42.016;21.454;2023-02-11T08:18:29;100084.50;;;12.00;27.51
62789;BME280;66401;42.016;21.454;2023-02-11T08:20:55;100079.94;;;11.25;28.30
62789;BME280;66401;42.016;21.454;2023-02-11T08:23:20;100077.09;;;13.54;25.21
62789;BME280;66401;42.016;21.454;2023-02-11T08:25:46;100087.03;;;14.84;23.63
62789;BME280;66401;42.016;21.454;2023-02-11T08:28:11;100078.56;;;13.40;24.58
62789;BME280;66401;42.016;21.454;2023-02-11T08:30:37;100090.81;;;15.80;22.36
62789;BME280;66401;42.016;21.454;2023-02-11T08:33:02;100086.28;;;15.73;21.83
62789;BME280;66401;42.016;21.454;2023-02-11T08:35:28;100084.47;;;14.45;23.45
62789;BME280;66401;42.016;21.454;2023-02-11T08:37:53;100076.38;;;16.71;21.11
62789;BME280;66401;42.016;21.454;2023-02-11T08:40:19;100063.72;;;16.45;21.56
62789;BME280;66401;42.016;21.454;2023-02-11T08:42:45;100043.41;;;16.39;20.50
62789;BME280;66401;42.016;21.454;2023-02-11T08:45:10;100074.63;;;17.83;19.14
62789;BME280;66401;42.016;21.454;2023-02-11T08:47:37;100076.25;;;16.43;20.32
62789;BME280;66401;42.016;21.454;2023-02-11T08:50:04;100071.56;;;17.52;18.86
62789;BME280;66401;42.016;21.454;2023-02-11T08:52:30;100050.81;;;18.05;18.41
62789;BME280;66401;42.016;21.454;2023-02-11T08:54:55;100066.59;;;18.46;18.11
62789;BME280;66401;42.016;21.454;2023-02-11T08:57:21;100068.28;;;18.06;18.29
62789;BME280;66401;42.016;21.454;2023-02-11T08:59:46;100038.44;;;17.08;19.49
62789;BME280;66401;42.016;21.454;2023-02-11T09:02:13;100053.91;;;18.96;16.71
62789;BME280;66401;42.016;21.454;2023-02-11T09:04:39;100059.81;;;19.04;17.81
62789;BME280;66401;42.016;21.454;2023-02-11T09:07:05;100055.38;;;17.55;18.91
62789;BME280;66401;42.016;21.454;2023-02-11T09:09:31;100045.03;;;18.42;17.57
62789;BME280;66401;42.016;21.454;2023-02-11T09:11:56;100057.47;;;16.67;19.47
62789;BME280;66401;42.016;21.454;2023-02-11T09:14:23;100063.22;;;19.51;17.06
62789;BME280;66401;42.016;21.454;2023-02-11T09:16:50;100055.41;;;21.90;14.38
62789;BME280;66401;42.016;21.454;2023-02-11T09:19:16;100051.31;;;22.73;12.89
62789;BME280;66401;42.016;21.454;2023-02-11T09:21:42;100047.22;;;23.00;12.19
62789;BME280;66401;42.016;21.454;2023-02-11T09:24:07;100047.44;;;22.27;13.78
62789;BME280;66401;42.016;21.454;2023-02-11T09:26:34;100044.53;;;19.53;16.00
62789;BME280;66401;42.016;21.454;2023-02-11T09:29:00;100033.78;;;19.61;15.65
62789;BME280;66401;42.016;21.454;2023-02-11T09:31:27;100031.09;;;17.59;17.69
62789;BME280;66401;42.016;21.454;2023-02-11T09:33:57;100012.41;;;20.52;14.96
62789;BME280;66401;42.016;21.454;2023-02-11T09:36:25;100017.44;;;20.28;15.90
62789;BME280;66401;42.016;21.454;2023-02-11T09:38:52;100016.19;;;19.86;16.07
62789;BME280;66401;42.016;21.454;2023-02-11T09:43:47;100020.06;;;21.96;14.62
62789;BME280;66401;42.016;21.454;2023-02-11T09:46:15;100017.06;;;21.75;14.30
62789;BME280;66401;42.016;21.454;2023-02-11T09:48:43;100005.00;;;19.91;15.25
62789;BME280;66401;42.016;21.454;2023-02-11T09:51:25;100000.16;;;21.87;13.41
62789;BME280;66401;42.016;21.454;2023-02-11T09:53:57;100002.69;;;21.82;13.44
62789;BME280;66401;42.016;21.454;2023-02-11T09:56:25;99988.69;;;21.57;13.64
62789;BME280;66401;42.016;21.454;2023-02-11T09:58:53;99986.38;;;20.74;14.43
62789;BME280;66401;42.016;21.454;2023-02-11T10:04:06;99990.13;;;22.08;13.14
62789;BME280;66401;42.016;21.454;2023-02-11T10:06:45;99981.19;;;21.35;13.89
62789;BME280;66401;42.016;21.454;2023-02-11T10:22:47;99938.69;;;21.90;12.40
62789;BME280;66401;42.016;21.454;2023-02-11T10:25:26;99926.03;;;23.11;12.53
62789;BME280;66401;42.016;21.454;2023-02-11T10:27:55;99938.00;;;22.55;12.11
62789;BME280;66401;42.016;21.454;2023-02-11T10:30:44;99920.00;;;21.85;13.40
62789;BME280;66401;42.016;21.454;2023-02-11T10:33:26;99918.13;;;22.57;13.97
62789;BME280;66401;42.016;21.454;2023-02-11T10:35:54;99906.25;;;22.72;13.12
62789;BME280;66401;42.016;21.454;2023-02-11T10:38:20;99906.84;;;22.09;13.88
62789;BME280;66401;42.016;21.454;2023-02-11T10:40:45;99898.75;;;22.69;14.08
62789;BME280;66401;42.016;21.454;2023-02-11T10:43:13;99900.88;;;22.25;13.20
62789;BME280;66401;42.016;21.454;2023-02-11T10:56:32;99872.38;;;21.90;13.71
62789;BME280;66401;42.016;21.454;2023-02-11T10:59:03;99863.88;;;22.53;13.48
62789;BME280;66401;42.016;21.454;2023-02-11T11:01:40;99857.38;;;23.48;12.88
62789;BME280;66401;42.016;21.454;2023-02-11T11:04:38;99846.53;;;23.09;13.16
62789;BME280;66401;42.016;21.454;2023-02-11T11:07:17;99824.00;;;22.77;12.73
62789;BME280;66401;42.016;21.454;2023-02-11T11:09:59;99836.09;;;24.05;11.52
62789;BME280;66401;42.016;21.454;2023-02-11T11:15:15;99822.72;;;23.03;11.89
62789;BME280;66401;42.016;21.454;2023-02-11T11:17:43;99823.88;;;23.35;12.18
62789;BME280;66401;42.016;21.454;2023-02-11T11:20:29;99814.13;;;23.81;12.17
62789;BME280;66401;42.016;21.454;2023-02-11T11:23:17;99799.31;;;24.36;11.08
62789;BME280;66401;42.016;21.454;2023-02-11T11:25:56;99804.31;;;25.09;11.50
62789;BME280;66401;42.016;21.454;2023-02-11T11:28:25;99795.59;;;23.86;11.74
62789;BME280;66401;42.016;21.454;2023-02-11T11:30:53;99789.66;;;24.90;10.91
62789;BME280;66401;42.016;21.454;2023-02-11T11:35:58;99791.69;;;21.56;13.19
62789;BME280;66401;42.016;21.454;2023-02-11T11:38:27;99784.31;;;23.96;11.58
62789;BME280;66401;42.016;21.454;2023-02-11T11:41:16;99780.75;;;24.24;11.50
62789;BME280;66401;42.016;21.454;2023-02-11T11:44:16;99777.63;;;24.49;11.02
62789;BME280;66401;42.016;21.454;2023-02-11T11:46:47;99772.56;;;23.35;12.17
62789;BME280;66401;42.016;21.454;2023-02-11T11:49:29;99774.41;;;22.42;12.21
62789;BME280;66401;42.016;21.454;2023-02-11T11:54:59;99766.69;;;24.45;11.28
62789;BME280;66401;42.016;21.454;2023-02-11T11:57:27;99758.31;;;23.69;11.62
62789;BME280;66401;42.016;21.454;2023-02-11T11:59:54;99743.25;;;22.26;12.54
62789;BME280;66401;42.016;21.454;2023-02-11T12:10:22;99733.84;;;22.70;12.88
62789;BME280;66401;42.016;21.454;2023-02-11T12:15:35;99724.03;;;23.11;12.31
62789;BME280;66401;42.016;21.454;2023-02-11T12:21:23;99686.78;;;21.49;13.51
62789;BME280;66401;42.016;21.454;2023-02-11T12:27:15;99701.97;;;20.81;13.58
62789;BME280;66401;42.016;21.454;2023-02-11T12:35:30;99680.28;;;18.80;14.91
62789;BME280;66401;42.016;21.454;2023-02-11T12:38:09;99682.97;;;18.73;15.86
62789;BME280;66401;42.016;21.454;2023-02-11T12:43:33;99677.25;;;18.76;16.18
62789;BME280;66401;42.016;21.454;2023-02-11T12:52:12;99668.84;;;16.96;17.84
62789;BME280;66401;42.016;21.454;2023-02-11T12:54:53;99678.28;;;16.01;17.47
62789;BME280;66401;42.016;21.454;2023-02-11T12:57:28;99674.47;;;14.75;18.41
62789;BME280;66401;42.016;21.454;2023-02-11T13:00:19;99658.13;;;14.44;19.49
62789;BME280;66401;42.016;21.454;2023-02-11T13:02:55;99655.41;;;13.78;20.32
62789;BME280;66401;42.016;21.454;2023-02-11T13:08:14;99658.88;;;13.56;19.63
62789;BME280;66401;42.016;21.454;2023-02-11T13:10:45;99648.56;;;14.07;20.49
62789;BME280;66401;42.016;21.454;2023-02-11T13:13:31;99656.25;;;14.23;19.31
62789;BME280;66401;42.016;21.454;2023-02-11T13:16:00;99649.28;;;14.30;19.68
62789;BME280;66401;42.016;21.454;2023-02-11T13:21:32;99643.31;;;13.39;20.63
62789;BME280;66401;42.016;21.454;2023-02-11T13:24:27;99636.44;;;13.38;19.52
62789;BME280;66401;42.016;21.454;2023-02-11T13:30:21;99629.09;;;13.57;20.22
62789;BME280;66401;42.016;21.454;2023-02-11T13:35:28;99622.94;;;13.50;20.24
62789;BME280;66401;42.016;21.454;2023-02-11T13:37:54;99624.41;;;13.67;21.33
62789;BME280;66401;42.016;21.454;2023-02-11T13:40:25;99622.09;;;13.72;20.71
62789;BME280;66401;42.016;21.454;2023-02-11T13:42:56;99610.88;;;13.63;21.47
62789;BME280;66401;42.016;21.454;2023-02-11T13:45:45;99612.44;;;13.72;21.56
62789;BME280;66401;42.016;21.454;2023-02-11T13:48:19;99611.78;;;13.85;19.87
62789;BME280;66401;42.016;21.454;2023-02-11T13:50:49;99610.50;;;13.52;20.54
62789;BME280;66401;42.016;21.454;2023-02-11T13:53:16;99606.66;;;13.39;20.58
62789;BME280;66401;42.016;21.454;2023-02-11T13:56:03;99607.53;;;13.09;22.11
62789;BME280;66401;42.016;21.454;2023-02-11T14:00:55;99601.50;;;13.08;22.25
62789;BME280;66401;42.016;21.454;2023-02-11T14:03:24;99609.09;;;13.18;22.53
62789;BME280;66401;42.016;21.454;2023-02-11T14:14:25;99598.63;;;13.18;22.43
62789;BME280;66401;42.016;21.454;2023-02-11T14:19:45;99601.81;;;12.82;21.73
62789;BME280;66401;42.016;21.454;2023-02-11T14:27:10;99594.91;;;12.36;23.16
62789;BME280;66401;42.016;21.454;2023-02-11T14:32:42;99588.56;;;11.83;22.97
62789;BME280;66401;42.016;21.454;2023-02-11T14:41:40;99588.59;;;11.17;24.46
62789;BME280;66401;42.016;21.454;2023-02-11T14:44:13;99593.81;;;10.93;25.36
62789;BME280;66401;42.016;21.454;2023-02-11T14:46:48;99578.31;;;10.75;25.36
62789;BME280;66401;42.016;21.454;2023-02-11T14:49:24;99582.59;;;10.93;25.58
62789;BME280;66401;42.016;21.454;2023-02-11T14:51:53;99582.75;;;10.83;25.20
62789;BME280;66401;42.016;21.454;2023-02-11T14:54:22;99574.56;;;10.78;25.61
62789;BME280;66401;42.016;21.454;2023-02-11T14:59:30;99580.59;;;10.62;25.94
62789;BME280;66401;42.016;21.454;2023-02-11T15:01:55;99579.78;;;10.62;26.16
62789;BME280;66401;42.016;21.454;2023-02-11T15:04:27;99577.69;;;10.23;26.20
62789;BME280;66401;42.016;21.454;2023-02-11T15:06:54;99573.00;;;10.00;26.69
62789;BME280;66401;42.016;21.454;2023-02-11T15:09:51;99576.66;;;9.82;26.78
62789;BME280;66401;42.016;21.454;2023-02-11T15:12:24;99566.31;;;9.64;26.91
62789;BME280;66401;42.016;21.454;2023-02-11T15:14:53;99568.84;;;9.48;27.35
62789;BME280;66401;42.016;21.454;2023-02-11T15:17:26;99549.31;;;9.00;27.70
62789;BME280;66401;42.016;21.454;2023-02-11T15:19:56;99570.44;;;9.05;27.73
62789;BME280;66401;42.016;21.454;2023-02-11T15:22:25;99570.75;;;9.20;27.05
62789;BME280;66401;42.016;21.454;2023-02-11T15:25:07;99579.38;;;9.02;28.17
62789;BME280;66401;42.016;21.454;2023-02-11T15:27:43;99555.25;;;8.74;28.08
62789;BME280;66401;42.016;21.454;2023-02-11T15:32:49;99566.06;;;8.87;28.29
62789;BME280;66401;42.016;21.454;2023-02-11T15:35:15;99559.13;;;8.70;28.80
62789;BME280;66401;42.016;21.454;2023-02-11T15:37:42;99557.47;;;8.69;29.28
62789;BME280;66401;42.016;21.454;2023-02-11T15:40:19;99565.63;;;8.74;29.16
62789;BME280;66401;42.016;21.454;2023-02-11T15:43:03;99555.88;;;8.58;29.04